sensor_id;sensor_type;location;lat;lon;timestamp;temperature;humidity
20141;DHT22;10231;47.702;9.826;2022-09-03T00:00:20;17.20;99.90
20141;DHT22;10231;47.702;9.826;2022-09-03T00:03:19;17.30;99.90
20141;DHT22;10231;47.702;9.826;2022-09-03T00:05:49;17.30;99.90
20141;DHT22;10231;47.702;9.826;2022-09-03T00:11:32;17.30;99.90
20141;DHT22;10231;47.702;9.826;2022-09-03T00:14:04;17.30;99.90
20141;DHT22;10231;47.702;9.826;2022-09-03T00:19:07;17.30;99.90
20141;DHT22;10231;47.702;9.826;2022-09-03T00:21:38;17.30;99.90
20141;DHT22;10231;47.702;9.826;2022-09-03T00:24:08;17.20;99.90
20141;DHT22;10231;47.702;9.826;2022-09-03T00:26:37;17.20;99.90
20141;DHT22;10231;47.702;9.826;2022-09-03T00:29:30;17.20;99.90
20141;DHT22;10231;47.702;9.826;2022-09-03T00:32:01;17.20;99.90
20141;DHT22;10231;47.702;9.826;2022-09-03T00:34:29;17.20;99.90
20141;DHT22;10231;47.702;9.826;2022-09-03T00:36:56;17.10;99.90
20141;DHT22;10231;47.702;9.826;2022-09-03T00:39:24;17.00;99.90
20141;DHT22;10231;47.702;9.826;2022-09-03T00:45:08;16.80;99.90
20141;DHT22;10231;47.702;9.826;2022-09-03T00:47:53;16.70;99.90
20141;DHT22;10231;47.702;9.826;2022-09-03T00:53:26;16.60;99.90
20141;DHT22;10231;47.702;9.826;2022-09-03T00:56:14;16.60;99.90
20141;DHT22;10231;47.702;9.826;2022-09-03T00:59:02;16.60;99.90
20141;DHT22;10231;47.702;9.826;2022-09-03T01:02:35;16.50;99.90
20141;DHT22;10231;47.702;9.826;2022-09-03T01:05:05;16.40;99.90
20141;DHT22;10231;47.702;9.826;2022-09-03T01:07:52;16.30;99.90
20141;DHT22;10231;47.702;9.826;2022-09-03T01:13:07;16.20;99.90
20141;DHT22;10231;47.702;9.826;2022-09-03T01:15:50;16.20;99.90
20141;DHT22;10231;47.702;9.826;2022-09-03T01:18:21;16.30;99.90
20141;DHT22;10231;47.702;9.826;2022-09-03T01:21:03;16.30;99.90
20141;DHT22;10231;47.702;9.826;2022-09-03T01:23:42;16.40;99.90
20141;DHT22;10231;47.702;9.826;2022-09-03T01:32:52;16.40;99.90
20141;DHT22;10231;47.702;9.826;2022-09-03T01:43:44;16.30;99.90
20141;DHT22;10231;47.702;9.826;2022-09-03T01:46:24;16.20;99.90
20141;DHT22;10231;47.702;9.826;2022-09-03T01:51:36;16.00;99.90
20141;DHT22;10231;47.702;9.826;2022-09-03T01:59:54;15.90;99.90
20141;DHT22;10231;47.702;9.826;2022-09-03T02:02:25;15.80;99.90
20141;DHT22;10231;47.702;9.826;2022-09-03T02:05:00;15.80;99.90
20141;DHT22;10231;47.702;9.826;2022-09-03T02:07:33;15.80;99.90
20141;DHT22;10231;47.702;9.826;2022-09-03T02:10:00;16.10;99.90
20141;DHT22;10231;47.702;9.826;2022-09-03T02:12:30;16.20;99.90
20141;DHT22;10231;47.702;9.826;2022-09-03T02:14:59;16.30;99.90
20141;DHT22;10231;47.702;9.826;2022-09-03T02:17:29;16.30;99.90
20141;DHT22;10231;47.702;9.826;2022-09-03T02:19:55;16.30;99.90
20141;DHT22;10231;47.702;9.826;2022-09-03T02:22:21;16.40;99.90
20141;DHT22;10231;47.702;9.826;2022-09-03T02:24:47;16.50;99.90
20141;DHT22;10231;47.702;9.826;2022-09-03T02:27:12;16.50;99.90
20141;DHT22;10231;47.702;9.826;2022-09-03T02:29:38;16.60;99.90
20141;DHT22;10231;47.702;9.826;2022-09-03T02:32:03;16.60;99.90
20141;DHT22;10231;47.702;9.826;2022-09-03T02:34:29;16.60;99.90
20141;DHT22;10231;47.702;9.826;2022-09-03T02:36:55;16.70;99.90
20141;DHT22;10231;47.702;9.826;2022-09-03T02:39:20;16.60;99.90
20141;DHT22;10231;47.702;9.826;2022-09-03T02:41:52;16.70;99.90
20141;DHT22;10231;47.702;9.826;2022-09-03T02:44:29;16.70;99.90
20141;DHT22;10231;47.702;9.826;2022-09-03T02:47:03;16.70;99.90
20141;DHT22;10231;47.702;9.826;2022-09-03T02:49:29;16.70;99.90
20141;DHT22;10231;47.702;9.826;2022-09-03T02:52:07;16.70;99.90
20141;DHT22;10231;47.702;9.826;2022-09-03T02:54:37;16.60;99.90
20141;DHT22;10231;47.702;9.826;2022-09-03T02:57:08;16.60;99.90
20141;DHT22;10231;47.702;9.826;2022-09-03T02:59:35;16.50;99.90
20141;DHT22;10231;47.702;9.826;2022-09-03T03:02:02;16.50;99.90
20141;DHT22;10231;47.702;9.826;2022-09-03T03:04:29;16.50;99.90
20141;DHT22;10231;47.702;9.826;2022-09-03T03:06:54;16.50;99.90
20141;DHT22;10231;47.702;9.826;2022-09-03T03:09:20;16.50;99.90
20141;DHT22;10231;47.702;9.826;2022-09-03T03:11:46;16.50;99.90
20141;DHT22;10231;47.702;9.826;2022-09-03T03:14:14;16.50;99.90
20141;DHT22;10231;47.702;9.826;2022-09-03T03:16:39;16.50;99.90
20141;DHT22;10231;47.702;9.826;2022-09-03T03:19:05;16.50;99.90
20141;DHT22;10231;47.702;9.826;2022-09-03T03:21:30;16.50;99.90
20141;DHT22;10231;47.702;9.826;2022-09-03T03:23:56;16.50;99.90
20141;DHT22;10231;47.702;9.826;2022-09-03T03:26:22;16.50;99.90
20141;DHT22;10231;47.702;9.826;2022-09-03T03:28:49;16.50;99.90
20141;DHT22;10231;47.702;9.826;2022-09-03T03:31:20;16.50;99.90
20141;DHT22;10231;47.702;9.826;2022-09-03T03:33:51;16.50;99.90
20141;DHT22;10231;47.702;9.826;2022-09-03T03:36:17;16.50;99.90
20141;DHT22;10231;47.702;9.826;2022-09-03T03:38:44;16.50;99.90
20141;DHT22;10231;47.702;9.826;2022-09-03T03:43:37;16.50;99.90
20141;DHT22;10231;47.702;9.826;2022-09-03T03:46:02;16.50;99.90
20141;DHT22;10231;47.702;9.826;2022-09-03T03:48:29;16.50;99.90
20141;DHT22;10231;47.702;9.826;2022-09-03T03:51:03;16.50;99.90
20141;DHT22;10231;47.702;9.826;2022-09-03T03:53:32;16.40;99.90
20141;DHT22;10231;47.702;9.826;2022-09-03T03:56:00;16.30;99.90
20141;DHT22;10231;47.702;9.826;2022-09-03T03:58:30;16.30;99.90
20141;DHT22;10231;47.702;9.826;2022-09-03T04:01:04;16.30;99.90
20141;DHT22;10231;47.702;9.826;2022-09-03T04:03:30;16.30;99.90
20141;DHT22;10231;47.702;9.826;2022-09-03T04:05:57;16.30;99.90
20141;DHT22;10231;47.702;9.826;2022-09-03T04:08:24;16.20;99.90
20141;DHT22;10231;47.702;9.826;2022-09-03T04:10:49;16.20;99.90
20141;DHT22;10231;47.702;9.826;2022-09-03T04:13:16;16.20;99.90
20141;DHT22;10231;47.702;9.826;2022-09-03T04:15:41;16.20;99.90
20141;DHT22;10231;47.702;9.826;2022-09-03T04:18:07;16.10;99.90
20141;DHT22;10231;47.702;9.826;2022-09-03T04:20:34;16.20;99.90
20141;DHT22;10231;47.702;9.826;2022-09-03T04:23:00;16.20;99.90
20141;DHT22;10231;47.702;9.826;2022-09-03T04:25:26;16.20;99.90
20141;DHT22;10231;47.702;9.826;2022-09-03T04:27:52;16.20;99.90
20141;DHT22;10231;47.702;9.826;2022-09-03T04:30:18;16.20;99.90
20141;DHT22;10231;47.702;9.826;2022-09-03T04:32:44;16.30;99.90
20141;DHT22;10231;47.702;9.826;2022-09-03T04:35:24;16.30;99.90
20141;DHT22;10231;47.702;9.826;2022-09-03T04:37:50;16.30;99.90
20141;DHT22;10231;47.702;9.826;2022-09-03T04:40:16;16.30;99.90
20141;DHT22;10231;47.702;9.826;2022-09-03T04:42:42;16.30;99.90
20141;DHT22;10231;47.702;9.826;2022-09-03T04:45:09;16.30;99.90
20141;DHT22;10231;47.702;9.826;2022-09-03T04:47:35;16.30;99.90
20141;DHT22;10231;47.702;9.826;2022-09-03T04:50:04;16.30;99.90
20141;DHT22;10231;47.702;9.826;2022-09-03T04:52:30;16.20;99.90
20141;DHT22;10231;47.702;9.826;2022-09-03T04:54:57;16.30;99.90
20141;DHT22;10231;47.702;9.826;2022-09-03T04:57:22;16.30;99.90
20141;DHT22;10231;47.702;9.826;2022-09-03T04:59:48;16.20;99.90
20141;DHT22;10231;47.702;9.826;2022-09-03T05:02:13;16.30;99.90
20141;DHT22;10231;47.702;9.826;2022-09-03T05:04:40;16.30;99.90
20141;DHT22;10231;47.702;9.826;2022-09-03T05:07:06;16.20;99.90
20141;DHT22;10231;47.702;9.826;2022-09-03T05:09:31;16.30;99.90
20141;DHT22;10231;47.702;9.826;2022-09-03T05:11:57;16.30;99.90
20141;DHT22;10231;47.702;9.826;2022-09-03T05:14:22;16.30;99.90
20141;DHT22;10231;47.702;9.826;2022-09-03T05:16:48;16.30;99.90
20141;DHT22;10231;47.702;9.826;2022-09-03T05:19:14;16.30;99.90
20141;DHT22;10231;47.702;9.826;2022-09-03T05:21:40;16.20;99.90
20141;DHT22;10231;47.702;9.826;2022-09-03T05:24:07;16.20;99.90
20141;DHT22;10231;47.702;9.826;2022-09-03T05:26:37;16.20;99.90
20141;DHT22;10231;47.702;9.826;2022-09-03T05:29:05;16.20;99.90
20141;DHT22;10231;47.702;9.826;2022-09-03T05:31:36;16.10;99.90
20141;DHT22;10231;47.702;9.826;2022-09-03T05:34:05;16.10;99.90
20141;DHT22;10231;47.702;9.826;2022-09-03T05:36:35;16.10;99.90
20141;DHT22;10231;47.702;9.826;2022-09-03T05:39:03;16.20;99.90
20141;DHT22;10231;47.702;9.826;2022-09-03T05:41:29;16.20;99.90
20141;DHT22;10231;47.702;9.826;2022-09-03T05:43:55;16.20;99.90
20141;DHT22;10231;47.702;9.826;2022-09-03T05:46:24;16.30;99.90
20141;DHT22;10231;47.702;9.826;2022-09-03T05:49:02;16.30;99.90
20141;DHT22;10231;47.702;9.826;2022-09-03T05:51:29;16.40;99.90
20141;DHT22;10231;47.702;9.826;2022-09-03T05:53:55;16.40;99.90
20141;DHT22;10231;47.702;9.826;2022-09-03T05:56:23;16.50;99.90
20141;DHT22;10231;47.702;9.826;2022-09-03T05:58:51;16.50;99.90
20141;DHT22;10231;47.702;9.826;2022-09-03T06:01:23;16.40;99.90
20141;DHT22;10231;47.702;9.826;2022-09-03T06:03:56;16.50;99.90
20141;DHT22;10231;47.702;9.826;2022-09-03T06:06:23;16.50;99.90
20141;DHT22;10231;47.702;9.826;2022-09-03T06:08:57;16.50;99.90
20141;DHT22;10231;47.702;9.826;2022-09-03T06:11:24;16.50;99.90
20141;DHT22;10231;47.702;9.826;2022-09-03T06:13:58;16.50;99.90
20141;DHT22;10231;47.702;9.826;2022-09-03T06:16:25;16.50;99.90
20141;DHT22;10231;47.702;9.826;2022-09-03T06:18:51;16.50;99.90
20141;DHT22;10231;47.702;9.826;2022-09-03T06:21:18;16.50;99.90
20141;DHT22;10231;47.702;9.826;2022-09-03T06:23:48;16.50;99.90
20141;DHT22;10231;47.702;9.826;2022-09-03T06:26:16;16.40;99.90
20141;DHT22;10231;47.702;9.826;2022-09-03T06:28:42;16.50;99.90
20141;DHT22;10231;47.702;9.826;2022-09-03T06:31:13;16.50;99.90
20141;DHT22;10231;47.702;9.826;2022-09-03T06:33:39;16.60;99.90
20141;DHT22;10231;47.702;9.826;2022-09-03T06:36:08;16.70;99.90
20141;DHT22;10231;47.702;9.826;2022-09-03T06:38:35;16.70;99.90
20141;DHT22;10231;47.702;9.826;2022-09-03T06:41:04;16.70;99.90
20141;DHT22;10231;47.702;9.826;2022-09-03T06:43:32;16.80;99.90
20141;DHT22;10231;47.702;9.826;2022-09-03T06:46:06;16.80;99.90
20141;DHT22;10231;47.702;9.826;2022-09-03T06:48:34;16.90;99.90
20141;DHT22;10231;47.702;9.826;2022-09-03T06:51:05;16.90;99.90
20141;DHT22;10231;47.702;9.826;2022-09-03T06:53:33;16.90;99.90
20141;DHT22;10231;47.702;9.826;2022-09-03T06:56:05;16.90;99.90
20141;DHT22;10231;47.702;9.826;2022-09-03T06:58:35;17.00;99.90
20141;DHT22;10231;47.702;9.826;2022-09-03T07:01:07;17.00;99.90
20141;DHT22;10231;47.702;9.826;2022-09-03T07:03:34;17.10;99.90
20141;DHT22;10231;47.702;9.826;2022-09-03T07:06:04;17.20;99.90
20141;DHT22;10231;47.702;9.826;2022-09-03T07:08:31;17.20;99.90
20141;DHT22;10231;47.702;9.826;2022-09-03T07:11:05;17.20;99.90
20141;DHT22;10231;47.702;9.826;2022-09-03T07:13:38;17.30;99.90
20141;DHT22;10231;47.702;9.826;2022-09-03T07:16:07;17.40;99.90
20141;DHT22;10231;47.702;9.826;2022-09-03T07:18:34;17.50;99.90
20141;DHT22;10231;47.702;9.826;2022-09-03T07:21:01;17.60;99.90
20141;DHT22;10231;47.702;9.826;2022-09-03T07:23:28;17.60;99.90
20141;DHT22;10231;47.702;9.826;2022-09-03T07:25:55;17.70;99.90
20141;DHT22;10231;47.702;9.826;2022-09-03T07:28:21;17.80;99.90
20141;DHT22;10231;47.702;9.826;2022-09-03T07:30:47;17.80;99.90
20141;DHT22;10231;47.702;9.826;2022-09-03T07:33:13;17.80;99.90
20141;DHT22;10231;47.702;9.826;2022-09-03T07:35:38;17.80;99.90
20141;DHT22;10231;47.702;9.826;2022-09-03T07:38:04;17.80;99.90
20141;DHT22;10231;47.702;9.826;2022-09-03T07:40:29;17.80;99.90
20141;DHT22;10231;47.702;9.826;2022-09-03T07:42:56;17.80;99.90
20141;DHT22;10231;47.702;9.826;2022-09-03T07:45:26;17.90;99.90
20141;DHT22;10231;47.702;9.826;2022-09-03T07:47:53;17.80;99.90
20141;DHT22;10231;47.702;9.826;2022-09-03T07:50:18;17.80;99.90
20141;DHT22;10231;47.702;9.826;2022-09-03T07:52:45;17.70;99.90
20141;DHT22;10231;47.702;9.826;2022-09-03T07:55:12;17.90;99.90
20141;DHT22;10231;47.702;9.826;2022-09-03T07:57:38;17.90;99.90
20141;DHT22;10231;47.702;9.826;2022-09-03T08:00:05;17.90;99.90
20141;DHT22;10231;47.702;9.826;2022-09-03T08:02:33;17.90;99.90
20141;DHT22;10231;47.702;9.826;2022-09-03T08:05:01;17.90;99.90
20141;DHT22;10231;47.702;9.826;2022-09-03T08:07:29;17.90;99.90
20141;DHT22;10231;47.702;9.826;2022-09-03T08:09:55;17.90;99.90
20141;DHT22;10231;47.702;9.826;2022-09-03T08:12:21;18.00;99.90
20141;DHT22;10231;47.702;9.826;2022-09-03T08:14:47;18.00;99.90
20141;DHT22;10231;47.702;9.826;2022-09-03T08:17:13;18.00;99.90
20141;DHT22;10231;47.702;9.826;2022-09-03T08:19:39;18.00;99.90
20141;DHT22;10231;47.702;9.826;2022-09-03T08:22:06;18.00;99.90
20141;DHT22;10231;47.702;9.826;2022-09-03T08:24:32;18.00;99.90
20141;DHT22;10231;47.702;9.826;2022-09-03T08:26:58;18.00;99.90
20141;DHT22;10231;47.702;9.826;2022-09-03T08:29:25;18.00;99.90
20141;DHT22;10231;47.702;9.826;2022-09-03T08:31:52;18.00;99.90
20141;DHT22;10231;47.702;9.826;2022-09-03T08:34:18;18.00;99.90
20141;DHT22;10231;47.702;9.826;2022-09-03T08:36:44;18.10;99.90
20141;DHT22;10231;47.702;9.826;2022-09-03T08:39:11;18.10;99.90
20141;DHT22;10231;47.702;9.826;2022-09-03T08:41:44;18.20;99.90
20141;DHT22;10231;47.702;9.826;2022-09-03T08:44:21;18.20;99.90
20141;DHT22;10231;47.702;9.826;2022-09-03T08:49:25;18.40;99.90
20141;DHT22;10231;47.702;9.826;2022-09-03T08:51:54;18.50;99.90
20141;DHT22;10231;47.702;9.826;2022-09-03T08:54:24;18.50;99.90
20141;DHT22;10231;47.702;9.826;2022-09-03T08:56:52;18.60;99.90
20141;DHT22;10231;47.702;9.826;2022-09-03T08:59:18;18.60;99.90
20141;DHT22;10231;47.702;9.826;2022-09-03T09:02:08;18.70;99.90
20141;DHT22;10231;47.702;9.826;2022-09-03T09:04:46;18.70;99.90
20141;DHT22;10231;47.702;9.826;2022-09-03T09:07:33;18.70;99.90
20141;DHT22;10231;47.702;9.826;2022-09-03T09:15:42;18.80;99.90
20141;DHT22;10231;47.702;9.826;2022-09-03T09:18:28;18.80;99.90
20141;DHT22;10231;47.702;9.826;2022-09-03T09:21:17;18.80;99.90
20141;DHT22;10231;47.702;9.826;2022-09-03T09:23:49;18.90;99.90
20141;DHT22;10231;47.702;9.826;2022-09-03T09:26:19;18.90;99.90
20141;DHT22;10231;47.702;9.826;2022-09-03T09:28:56;18.90;99.90
20141;DHT22;10231;47.702;9.826;2022-09-03T09:31:24;18.90;99.90
20141;DHT22;10231;47.702;9.826;2022-09-03T09:33:50;19.00;99.90
20141;DHT22;10231;47.702;9.826;2022-09-03T09:36:17;19.00;99.90
20141;DHT22;10231;47.702;9.826;2022-09-03T09:38:44;19.00;99.90
20141;DHT22;10231;47.702;9.826;2022-09-03T09:41:15;19.10;99.90
20141;DHT22;10231;47.702;9.826;2022-09-03T09:43:42;19.10;99.90
20141;DHT22;10231;47.702;9.826;2022-09-03T09:46:22;19.20;99.90
20141;DHT22;10231;47.702;9.826;2022-09-03T09:53:58;19.40;99.90
20141;DHT22;10231;47.702;9.826;2022-09-03T09:56:25;19.40;99.90
20141;DHT22;10231;47.702;9.826;2022-09-03T09:59:02;19.50;99.90
20141;DHT22;10231;47.702;9.826;2022-09-03T10:01:28;19.60;99.90
20141;DHT22;10231;47.702;9.826;2022-09-03T10:03:57;19.70;99.90
20141;DHT22;10231;47.702;9.826;2022-09-03T10:06:26;19.80;99.90
20141;DHT22;10231;47.702;9.826;2022-09-03T10:09:14;19.90;99.90
20141;DHT22;10231;47.702;9.826;2022-09-03T10:11:48;19.90;99.90
20141;DHT22;10231;47.702;9.826;2022-09-03T10:14:33;20.00;99.90
20141;DHT22;10231;47.702;9.826;2022-09-03T10:17:13;20.00;99.90
20141;DHT22;10231;47.702;9.826;2022-09-03T10:20:03;20.10;99.90
20141;DHT22;10231;47.702;9.826;2022-09-03T10:23:05;20.20;99.90
20141;DHT22;10231;47.702;9.826;2022-09-03T10:28:24;20.40;99.90
20141;DHT22;10231;47.702;9.826;2022-09-03T10:31:10;20.50;99.90
20141;DHT22;10231;47.702;9.826;2022-09-03T10:39:14;20.70;99.90
20141;DHT22;10231;47.702;9.826;2022-09-03T10:44:41;20.70;99.90
20141;DHT22;10231;47.702;9.826;2022-09-03T10:47:39;20.70;99.90
20141;DHT22;10231;47.702;9.826;2022-09-03T10:50:30;20.70;99.90
20141;DHT22;10231;47.702;9.826;2022-09-03T10:56:11;20.80;99.90
20141;DHT22;10231;47.702;9.826;2022-09-03T11:01:43;20.90;99.90
20141;DHT22;10231;47.702;9.826;2022-09-03T11:04:41;21.00;99.90
20141;DHT22;10231;47.702;9.826;2022-09-03T11:07:11;21.00;99.90
20141;DHT22;10231;47.702;9.826;2022-09-03T11:09:42;21.00;99.90
20141;DHT22;10231;47.702;9.826;2022-09-03T11:12:34;20.90;99.90
20141;DHT22;10231;47.702;9.826;2022-09-03T11:15:30;20.80;99.90
20141;DHT22;10231;47.702;9.826;2022-09-03T11:20:28;20.70;99.90
20141;DHT22;10231;47.702;9.826;2022-09-03T11:22:59;20.60;99.90
20141;DHT22;10231;47.702;9.826;2022-09-03T11:25:36;20.60;99.90
20141;DHT22;10231;47.702;9.826;2022-09-03T11:28:24;20.50;99.90
20141;DHT22;10231;47.702;9.826;2022-09-03T11:31:08;20.40;99.90
20141;DHT22;10231;47.702;9.826;2022-09-03T11:33:42;20.30;99.90
20141;DHT22;10231;47.702;9.826;2022-09-03T11:36:10;20.10;99.90
20141;DHT22;10231;47.702;9.826;2022-09-03T11:38:36;19.90;99.90
20141;DHT22;10231;47.702;9.826;2022-09-03T11:41:13;19.60;99.90
20141;DHT22;10231;47.702;9.826;2022-09-03T11:43:41;19.20;99.90
20141;DHT22;10231;47.702;9.826;2022-09-03T11:46:27;18.90;99.90
20141;DHT22;10231;47.702;9.826;2022-09-03T11:49:12;18.50;99.90
20141;DHT22;10231;47.702;9.826;2022-09-03T11:51:59;18.30;99.90
20141;DHT22;10231;47.702;9.826;2022-09-03T11:54:25;18.10;99.90
20141;DHT22;10231;47.702;9.826;2022-09-03T11:57:06;17.90;99.90
20141;DHT22;10231;47.702;9.826;2022-09-03T11:59:34;17.80;99.90
20141;DHT22;10231;47.702;9.826;2022-09-03T12:02:28;17.70;99.90
20141;DHT22;10231;47.702;9.826;2022-09-03T12:05:13;17.70;99.90
20141;DHT22;10231;47.702;9.826;2022-09-03T12:08:09;17.60;99.90
20141;DHT22;10231;47.702;9.826;2022-09-03T12:10:55;17.60;99.90
20141;DHT22;10231;47.702;9.826;2022-09-03T12:14:05;17.70;99.90
20141;DHT22;10231;47.702;9.826;2022-09-03T12:19:28;17.60;99.90
20141;DHT22;10231;47.702;9.826;2022-09-03T12:21:55;17.60;99.90
20141;DHT22;10231;47.702;9.826;2022-09-03T12:24:21;17.60;99.90
20141;DHT22;10231;47.702;9.826;2022-09-03T12:26:47;17.50;99.90
20141;DHT22;10231;47.702;9.826;2022-09-03T12:29:27;17.50;99.90
20141;DHT22;10231;47.702;9.826;2022-09-03T12:31:54;17.40;99.90
20141;DHT22;10231;47.702;9.826;2022-09-03T12:34:21;17.50;99.90
20141;DHT22;10231;47.702;9.826;2022-09-03T12:36:50;17.40;99.90
20141;DHT22;10231;47.702;9.826;2022-09-03T12:39:22;17.30;99.90
20141;DHT22;10231;47.702;9.826;2022-09-03T12:42:09;17.30;99.90
20141;DHT22;10231;47.702;9.826;2022-09-03T12:44:40;17.20;99.90
20141;DHT22;10231;47.702;9.826;2022-09-03T12:49:39;17.10;99.90
20141;DHT22;10231;47.702;9.826;2022-09-03T12:52:32;17.00;99.90
20141;DHT22;10231;47.702;9.826;2022-09-03T12:55:07;17.10;99.90
20141;DHT22;10231;47.702;9.826;2022-09-03T12:57:48;17.10;99.90
20141;DHT22;10231;47.702;9.826;2022-09-03T13:00:17;17.10;99.90
20141;DHT22;10231;47.702;9.826;2022-09-03T13:03:04;17.00;99.90
20141;DHT22;10231;47.702;9.826;2022-09-03T13:06:07;17.00;99.90
20141;DHT22;10231;47.702;9.826;2022-09-03T13:09:03;17.10;99.90
20141;DHT22;10231;47.702;9.826;2022-09-03T13:11:35;17.20;99.90
20141;DHT22;10231;47.702;9.826;2022-09-03T13:14:06;17.20;99.90
20141;DHT22;10231;47.702;9.826;2022-09-03T13:30:19;17.80;99.90
20141;DHT22;10231;47.702;9.826;2022-09-03T13:35:39;18.10;99.90
20141;DHT22;10231;47.702;9.826;2022-09-03T13:38:38;18.40;99.90
20141;DHT22;10231;47.702;9.826;2022-09-03T13:41:54;18.50;99.90
20141;DHT22;10231;47.702;9.826;2022-09-03T13:44:33;18.70;99.90
20141;DHT22;10231;47.702;9.826;2022-09-03T13:50:10;18.70;99.90
20141;DHT22;10231;47.702;9.826;2022-09-03T13:53:38;18.70;99.90
20141;DHT22;10231;47.702;9.826;2022-09-03T13:55:48;18.70;99.90
20141;DHT22;10231;47.702;9.826;2022-09-03T13:58:27;18.90;99.90
20141;DHT22;10231;47.702;9.826;2022-09-03T14:06:25;19.80;99.90
20141;DHT22;10231;47.702;9.826;2022-09-03T14:09:17;20.10;99.90
20141;DHT22;10231;47.702;9.826;2022-09-03T14:12:01;20.40;99.90
20141;DHT22;10231;47.702;9.826;2022-09-03T14:17:31;20.60;99.90
20141;DHT22;10231;47.702;9.826;2022-09-03T14:20:05;20.60;99.90
20141;DHT22;10231;47.702;9.826;2022-09-03T14:25:17;20.80;99.90
20141;DHT22;10231;47.702;9.826;2022-09-03T14:27:43;21.00;99.90
20141;DHT22;10231;47.702;9.826;2022-09-03T14:38:31;22.00;99.90
20141;DHT22;10231;47.702;9.826;2022-09-03T14:41:21;22.20;99.90
20141;DHT22;10231;47.702;9.826;2022-09-03T14:44:19;22.50;99.90
20141;DHT22;10231;47.702;9.826;2022-09-03T14:47:15;23.00;99.90
20141;DHT22;10231;47.702;9.826;2022-09-03T14:50:06;23.30;99.90
20141;DHT22;10231;47.702;9.826;2022-09-03T14:52:47;23.40;99.90
20141;DHT22;10231;47.702;9.826;2022-09-03T14:55:47;23.60;99.90
20141;DHT22;10231;47.702;9.826;2022-09-03T15:03:49;23.40;99.90
20141;DHT22;10231;47.702;9.826;2022-09-03T15:09:21;24.00;99.90
20141;DHT22;10231;47.702;9.826;2022-09-03T15:11:58;24.40;99.90
20141;DHT22;10231;47.702;9.826;2022-09-03T15:14:41;24.80;99.90
20141;DHT22;10231;47.702;9.826;2022-09-03T15:17:46;25.10;99.90
20141;DHT22;10231;47.702;9.826;2022-09-03T15:20:29;25.40;99.90
20141;DHT22;10231;47.702;9.826;2022-09-03T15:28:44;25.30;99.90
20141;DHT22;10231;47.702;9.826;2022-09-03T15:31:21;25.50;99.90
20141;DHT22;10231;47.702;9.826;2022-09-03T15:34:34;25.60;99.90
20141;DHT22;10231;47.702;9.826;2022-09-03T15:36:51;25.50;99.90
20141;DHT22;10231;47.702;9.826;2022-09-03T15:39:23;25.60;99.90
20141;DHT22;10231;47.702;9.826;2022-09-03T15:41:52;25.40;99.60
20141;DHT22;10231;47.702;9.826;2022-09-03T15:44:22;25.50;99.00
20141;DHT22;10231;47.702;9.826;2022-09-03T15:46:59;25.70;99.10
20141;DHT22;10231;47.702;9.826;2022-09-03T15:49:43;25.80;98.50
20141;DHT22;10231;47.702;9.826;2022-09-03T15:55:04;28.00;95.40
20141;DHT22;10231;47.702;9.826;2022-09-03T15:57:38;28.90;93.80
20141;DHT22;10231;47.702;9.826;2022-09-03T16:00:10;29.80;93.10
20141;DHT22;10231;47.702;9.826;2022-09-03T16:02:46;30.60;88.90
20141;DHT22;10231;47.702;9.826;2022-09-03T16:05:19;31.20;88.50
20141;DHT22;10231;47.702;9.826;2022-09-03T16:11:07;32.00;83.00
20141;DHT22;10231;47.702;9.826;2022-09-03T16:13:52;32.10;79.40
20141;DHT22;10231;47.702;9.826;2022-09-03T16:16:30;32.10;78.60
20141;DHT22;10231;47.702;9.826;2022-09-03T16:21:37;31.70;76.80
20141;DHT22;10231;47.702;9.826;2022-09-03T16:24:29;30.80;79.40
20141;DHT22;10231;47.702;9.826;2022-09-03T16:26:59;30.70;81.00
20141;DHT22;10231;47.702;9.826;2022-09-03T16:29:29;30.80;80.70
20141;DHT22;10231;47.702;9.826;2022-09-03T16:32:22;30.90;78.90
20141;DHT22;10231;47.702;9.826;2022-09-03T16:42:42;26.20;90.50
20141;DHT22;10231;47.702;9.826;2022-09-03T16:45:23;25.40;92.00
20141;DHT22;10231;47.702;9.826;2022-09-03T16:51:05;24.40;94.60
20141;DHT22;10231;47.702;9.826;2022-09-03T16:53:44;24.00;95.80
20141;DHT22;10231;47.702;9.826;2022-09-03T17:01:47;23.00;98.90
20141;DHT22;10231;47.702;9.826;2022-09-03T17:07:40;22.50;99.90
20141;DHT22;10231;47.702;9.826;2022-09-03T17:16:11;22.00;99.90
20141;DHT22;10231;47.702;9.826;2022-09-03T17:24:16;21.80;99.90
20141;DHT22;10231;47.702;9.826;2022-09-03T17:32:43;21.30;99.90
20141;DHT22;10231;47.702;9.826;2022-09-03T17:35:41;21.20;99.90
20141;DHT22;10231;47.702;9.826;2022-09-03T17:41:22;20.90;99.90
20141;DHT22;10231;47.702;9.826;2022-09-03T17:44:03;20.80;99.90
20141;DHT22;10231;47.702;9.826;2022-09-03T17:46:40;20.70;99.90
20141;DHT22;10231;47.702;9.826;2022-09-03T17:49:25;20.70;99.90
20141;DHT22;10231;47.702;9.826;2022-09-03T18:00:04;20.40;99.90
20141;DHT22;10231;47.702;9.826;2022-09-03T18:05:48;20.10;99.90
20141;DHT22;10231;47.702;9.826;2022-09-03T18:08:20;20.00;99.90
20141;DHT22;10231;47.702;9.826;2022-09-03T18:13:45;19.80;99.90
20141;DHT22;10231;47.702;9.826;2022-09-03T18:22:34;19.60;99.90
20141;DHT22;10231;47.702;9.826;2022-09-03T18:25:22;19.60;99.90
20141;DHT22;10231;47.702;9.826;2022-09-03T18:28:09;19.50;99.90
20141;DHT22;10231;47.702;9.826;2022-09-03T18:30:56;19.40;99.90
20141;DHT22;10231;47.702;9.826;2022-09-03T18:33:40;19.30;99.90
20141;DHT22;10231;47.702;9.826;2022-09-03T18:36:24;19.30;99.90
20141;DHT22;10231;47.702;9.826;2022-09-03T18:39:26;19.20;99.90
20141;DHT22;10231;47.702;9.826;2022-09-03T18:42:34;19.10;99.90
20141;DHT22;10231;47.702;9.826;2022-09-03T18:45:43;19.10;99.90
20141;DHT22;10231;47.702;9.826;2022-09-03T18:51:35;18.90;99.90
20141;DHT22;10231;47.702;9.826;2022-09-03T18:57:26;18.60;99.90
20141;DHT22;10231;47.702;9.826;2022-09-03T19:00:14;18.60;99.90
20141;DHT22;10231;47.702;9.826;2022-09-03T19:18:17;18.20;99.90
20141;DHT22;10231;47.702;9.826;2022-09-03T19:21:35;18.20;99.90
20141;DHT22;10231;47.702;9.826;2022-09-03T19:24:29;18.20;99.90
20141;DHT22;10231;47.702;9.826;2022-09-03T19:27:39;18.20;99.90
20141;DHT22;10231;47.702;9.826;2022-09-03T19:36:22;17.90;99.90
20141;DHT22;10231;47.702;9.826;2022-09-03T19:42:54;17.80;99.90
20141;DHT22;10231;47.702;9.826;2022-09-03T19:55:07;17.60;99.90
20141;DHT22;10231;47.702;9.826;2022-09-03T19:57:54;17.50;99.90
20141;DHT22;10231;47.702;9.826;2022-09-03T20:00:40;17.60;99.90
20141;DHT22;10231;47.702;9.826;2022-09-03T20:03:25;17.50;99.90
20141;DHT22;10231;47.702;9.826;2022-09-03T20:06:11;17.50;99.90
20141;DHT22;10231;47.702;9.826;2022-09-03T20:09:01;17.50;99.90
20141;DHT22;10231;47.702;9.826;2022-09-03T20:11:47;17.40;99.90
20141;DHT22;10231;47.702;9.826;2022-09-03T20:14:14;17.30;99.90
20141;DHT22;10231;47.702;9.826;2022-09-03T20:27:51;17.10;99.90